createdAt,value
2018-07-26T00:02:06.949Z,26.20
2018-07-26T00:04:47.954Z,26.20
2018-07-26T00:07:28.933Z,26.10
2018-07-26T00:10:10.206Z,26.10
2018-07-26T00:12:51.743Z,26.10
2018-07-26T00:15:32.829Z,26.10
2018-07-26T00:18:13.811Z,26.10
2018-07-26T00:20:54.639Z,26.10
2018-07-26T00:23:36.218Z,26.10
2018-07-26T00:26:17.049Z,26.10
2018-07-26T00:28:58.558Z,26.10
2018-07-26T00:31:39.387Z,26.10
2018-07-26T00:34:20.770Z,26.10
2018-07-26T00:37:01.973Z,26.10
2018-07-26T00:39:43.094Z,26.10
2018-07-26T00:42:24.263Z,26.10
2018-07-26T00:45:05.002Z,26.00
2018-07-26T00:47:46.246Z,26.00
2018-07-26T00:50:27.187Z,26.00
2018-07-26T00:53:08.191Z,26.00
2018-07-26T00:55:49.597Z,26.00
2018-07-26T00:58:30.236Z,26.10
2018-07-26T01:01:11.319Z,26.10
2018-07-26T01:03:52.149Z,26.10
2018-07-26T01:06:33.208Z,26.10
2018-07-26T01:09:14.227Z,26.20
2018-07-26T01:11:55.092Z,26.20
2018-07-26T01:14:36.216Z,26.20
2018-07-26T01:17:17.295Z,26.20
2018-07-26T01:19:57.940Z,26.20
2018-07-26T01:22:39.660Z,26.20
2018-07-26T01:25:20.305Z,26.30
2018-07-26T01:28:00.910Z,26.30
2018-07-26T01:30:41.570Z,26.40
2018-07-26T01:33:22.656Z,26.50
2018-07-26T01:36:03.668Z,26.60
2018-07-26T01:38:44.945Z,26.70
2018-07-26T01:41:26.322Z,26.70
2018-07-26T01:44:07.213Z,26.70
2018-07-26T01:46:48.479Z,26.70
2018-07-26T01:49:29.324Z,26.70
2018-07-26T01:52:10.299Z,26.70
2018-07-26T01:54:51.067Z,26.80
2018-07-26T01:57:32.046Z,26.80
2018-07-26T02:00:13.335Z,26.80
2018-07-26T02:02:54.839Z,26.80
2018-07-26T02:05:35.597Z,26.80
2018-07-26T02:08:16.860Z,26.80
2018-07-26T02:10:58.655Z,26.80
2018-07-26T02:13:40.555Z,26.90
2018-07-26T02:16:21.206Z,26.90
2018-07-26T02:19:02.253Z,26.90
2018-07-26T02:21:43.553Z,26.90
2018-07-26T02:24:24.338Z,26.90
2018-07-26T02:27:05.541Z,26.90
2018-07-26T02:29:46.862Z,26.90
2018-07-26T02:32:27.849Z,26.90
2018-07-26T02:35:08.665Z,26.90
2018-07-26T02:37:49.598Z,26.90
2018-07-26T02:40:30.181Z,26.90
2018-07-26T02:43:12.121Z,26.90
2018-07-26T02:45:52.887Z,27.00
2018-07-26T02:48:33.933Z,27.00
2018-07-26T02:51:15.118Z,26.90
2018-07-26T02:53:55.900Z,26.90
2018-07-26T02:56:38.047Z,26.80
2018-07-26T02:59:19.119Z,26.80
2018-07-26T03:02:00.280Z,26.80
2018-07-26T03:04:41.390Z,26.70
2018-07-26T03:07:22.482Z,26.70
2018-07-26T03:10:04.052Z,26.70
2018-07-26T03:12:44.959Z,26.60
2018-07-26T03:15:25.877Z,26.60
2018-07-26T03:18:06.608Z,26.60
2018-07-26T03:20:47.362Z,26.60
2018-07-26T03:23:27.962Z,26.60
2018-07-26T03:26:08.727Z,26.60
2018-07-26T03:28:49.696Z,26.60
2018-07-26T03:31:30.290Z,26.50
2018-07-26T03:34:11.456Z,26.50
2018-07-26T03:36:52.720Z,26.50
2018-07-26T03:39:33.892Z,26.50
2018-07-26T03:42:14.968Z,26.40
2018-07-26T03:44:56.213Z,26.40
2018-07-26T03:47:37.066Z,26.40
2018-07-26T03:50:18.398Z,26.40
2018-07-26T03:52:59.162Z,26.30
2018-07-26T03:55:40.220Z,26.40
2018-07-26T03:58:21.547Z,26.30
2018-07-26T04:01:03.041Z,26.30
2018-07-26T04:06:25.625Z,26.30
2018-07-26T04:09:06.562Z,26.30
2018-07-26T04:11:47.717Z,26.30
2018-07-26T04:17:10.022Z,26.30
2018-07-26T04:19:51.160Z,26.20
2018-07-26T04:22:32.168Z,26.10
2018-07-26T04:25:13.085Z,26.10
2018-07-26T04:27:54.162Z,26.00
2018-07-26T04:30:35.112Z,26.00
2018-07-26T04:33:16.458Z,26.00
2018-07-26T04:35:58.019Z,25.90
2018-07-26T04:38:39.657Z,25.80
2018-07-26T04:41:20.568Z,25.80
2018-07-26T04:44:01.496Z,25.80
2018-07-26T04:46:42.458Z,25.80
2018-07-26T04:49:23.631Z,25.70
2018-07-26T04:52:04.896Z,25.60
2018-07-26T04:54:45.883Z,25.60
2018-07-26T04:57:27.297Z,25.60
2018-07-26T05:00:08.322Z,25.50
2018-07-26T05:02:48.943Z,25.50
2018-07-26T05:08:11.485Z,25.50
2018-07-26T05:10:52.149Z,25.50
2018-07-26T05:13:33.594Z,25.50
2018-07-26T05:16:14.595Z,25.50
2018-07-26T05:18:55.500Z,25.60
2018-07-26T05:21:36.843Z,25.60
2018-07-26T05:24:17.501Z,25.60
2018-07-26T05:26:58.425Z,25.60
2018-07-26T05:29:39.644Z,25.70
2018-07-26T05:32:21.081Z,26.00
2018-07-26T05:35:02.509Z,26.20
2018-07-26T05:37:43.300Z,26.50
2018-07-26T05:40:24.349Z,26.70
2018-07-26T05:43:05.359Z,27.00
2018-07-26T05:45:46.647Z,27.20
2018-07-26T05:48:27.534Z,27.40
2018-07-26T05:51:08.612Z,27.60
2018-07-26T05:53:49.791Z,27.80
2018-07-26T05:56:31.330Z,28.10
2018-07-26T05:59:12.241Z,28.40
2018-07-26T06:01:53.337Z,28.70
2018-07-26T06:04:34.929Z,28.90
2018-07-26T06:07:16.422Z,29.20
2018-07-26T06:09:57.422Z,29.50
2018-07-26T06:12:38.366Z,29.70
2018-07-26T06:15:19.404Z,30.00
2018-07-26T06:18:00.192Z,30.20
2018-07-26T06:20:41.379Z,30.50
2018-07-26T06:23:22.372Z,30.90
2018-07-26T06:26:03.352Z,31.10
2018-07-26T06:28:44.557Z,31.30
2018-07-26T06:31:25.705Z,31.40
2018-07-26T06:34:06.992Z,31.70
2018-07-26T06:36:47.779Z,31.70
2018-07-26T06:39:29.269Z,31.80
2018-07-26T06:42:11.149Z,31.90
2018-07-26T06:44:51.899Z,32.00
2018-07-26T06:47:32.947Z,32.00
2018-07-26T06:50:14.024Z,32.00
2018-07-26T06:52:54.802Z,32.20
2018-07-26T06:55:35.792Z,32.40
2018-07-26T06:58:16.521Z,32.50
2018-07-26T07:00:58.065Z,32.60
2018-07-26T07:06:20.485Z,32.90
2018-07-26T07:09:01.485Z,33.10
2018-07-26T07:11:42.394Z,33.20
2018-07-26T07:14:23.952Z,33.40
2018-07-26T07:17:05.040Z,33.40
2018-07-26T07:19:46.466Z,33.30
2018-07-26T07:22:27.325Z,33.10
2018-07-26T07:25:08.300Z,33.00
2018-07-26T07:27:49.588Z,32.80
2018-07-26T07:30:30.200Z,32.70
2018-07-26T07:33:11.612Z,32.60
2018-07-26T07:35:52.736Z,32.40
2018-07-26T07:38:34.211Z,32.30
2018-07-26T07:41:14.922Z,32.20
2018-07-26T07:43:55.644Z,32.10
2018-07-26T07:46:36.974Z,31.80
2018-07-26T07:49:18.074Z,31.80
2018-07-26T07:51:59.284Z,31.90
2018-07-26T07:54:40.330Z,32.00
2018-07-26T07:57:21.901Z,32.10
2018-07-26T08:00:02.462Z,32.30
2018-07-26T08:02:43.338Z,32.50
2018-07-26T08:05:24.591Z,32.80
2018-07-26T08:08:06.069Z,33.20
2018-07-26T08:10:47.409Z,33.40
2018-07-26T08:13:28.202Z,33.60
2018-07-26T08:16:08.985Z,33.80
2018-07-26T08:18:49.894Z,34.00
2018-07-26T08:21:31.159Z,34.10
2018-07-26T08:24:12.451Z,34.20
2018-07-26T08:26:53.752Z,34.20
2018-07-26T08:32:15.737Z,34.00
2018-07-26T08:34:56.910Z,33.80
2018-07-26T08:37:38.150Z,33.50
2018-07-26T08:40:19.310Z,33.30
2018-07-26T08:43:00.333Z,33.10
2018-07-26T08:45:41.228Z,33.00
2018-07-26T08:48:22.001Z,33.10
2018-07-26T08:51:02.966Z,33.10
2018-07-26T08:53:43.873Z,33.20
2018-07-26T08:56:24.940Z,33.40
2018-07-26T08:59:06.093Z,33.50
2018-07-26T09:01:47.320Z,33.60
2018-07-26T09:04:28.201Z,33.80
2018-07-26T09:07:09.715Z,33.90
2018-07-26T09:09:50.882Z,34.00
2018-07-26T09:12:31.771Z,34.00
2018-07-26T09:15:12.924Z,34.10
2018-07-26T09:17:53.933Z,34.10
2018-07-26T09:20:35.132Z,34.20
2018-07-26T09:23:16.141Z,34.30
2018-07-26T09:25:57.294Z,34.50
2018-07-26T09:28:38.393Z,34.70
2018-07-26T09:31:19.611Z,34.80
2018-07-26T09:34:00.557Z,35.00
2018-07-26T09:36:41.649Z,35.10
2018-07-26T09:42:03.950Z,35.30
2018-07-26T09:44:44.775Z,35.50
2018-07-26T09:50:06.742Z,36.10
2018-07-26T09:55:29.485Z,36.40
2018-07-26T09:58:10.954Z,36.30
2018-07-26T10:00:56.855Z,36.10
2018-07-26T10:03:38.493Z,35.90
2018-07-26T10:06:19.368Z,35.70
2018-07-26T10:09:00.448Z,35.50
2018-07-26T10:11:41.663Z,35.30
2018-07-26T10:14:23.550Z,35.20
2018-07-26T10:17:05.124Z,35.00
2018-07-26T10:19:46.153Z,35.00
2018-07-26T10:22:27.014Z,35.00
2018-07-26T10:25:08.448Z,35.10
2018-07-26T10:27:49.107Z,35.20
2018-07-26T10:33:12.321Z,35.20
2018-07-26T10:35:53.558Z,35.00
2018-07-26T10:38:34.665Z,34.80
2018-07-26T10:41:15.724Z,34.70
2018-07-26T10:43:56.582Z,34.60
2018-07-26T10:46:37.879Z,34.50
2018-07-26T10:49:18.994Z,34.40
2018-07-26T10:52:00.406Z,34.40
2018-07-26T10:54:41.723Z,34.30
2018-07-26T10:57:23.000Z,34.30
2018-07-26T11:00:04.032Z,34.40
2018-07-26T11:02:45.341Z,34.30
2018-07-26T11:05:26.764Z,34.30
2018-07-26T11:08:08.287Z,34.30
2018-07-26T11:10:49.187Z,34.50
2018-07-26T11:13:29.985Z,34.50
2018-07-26T11:16:11.087Z,34.50
2018-07-26T11:18:52.124Z,34.40
2018-07-26T11:21:33.094Z,34.40
2018-07-26T11:24:15.767Z,34.40
2018-07-26T11:26:56.631Z,34.50
2018-07-26T11:29:37.630Z,34.60
2018-07-26T11:32:18.508Z,34.70
2018-07-26T11:34:59.370Z,34.70
2018-07-26T11:37:40.495Z,34.70
2018-07-26T11:40:21.957Z,34.80
2018-07-26T11:43:03.110Z,34.80
2018-07-26T11:45:44.219Z,34.90
2018-07-26T11:51:06.378Z,34.80
2018-07-26T11:53:47.590Z,34.80
2018-07-26T11:56:28.605Z,34.80
2018-07-26T11:59:09.326Z,34.70
2018-07-26T12:01:50.649Z,34.60
2018-07-26T12:04:31.444Z,34.50
2018-07-26T12:07:12.497Z,34.40
2018-07-26T12:09:53.731Z,34.30
2018-07-26T12:15:21.482Z,34.10
2018-07-26T12:18:02.447Z,34.00
2018-07-26T12:20:43.584Z,33.90
2018-07-26T12:23:24.831Z,33.90
2018-07-26T12:26:05.565Z,33.80
2018-07-26T12:28:46.817Z,33.80
2018-07-26T12:31:27.596Z,33.80
2018-07-26T12:34:08.424Z,33.90
2018-07-26T12:36:49.733Z,33.90
2018-07-26T12:39:32.245Z,34.10
2018-07-26T12:42:13.047Z,34.20
2018-07-26T12:44:53.796Z,34.30
2018-07-26T12:47:35.081Z,34.30
2018-07-26T12:50:15.917Z,34.30
2018-07-26T12:52:56.737Z,34.20
2018-07-26T12:58:18.631Z,34.20
2018-07-26T13:00:59.698Z,34.20
2018-07-26T13:03:40.950Z,34.10
2018-07-26T13:06:22.844Z,34.10
2018-07-26T13:09:04.131Z,34.00
2018-07-26T13:11:45.590Z,33.90
2018-07-26T13:14:26.527Z,33.80
2018-07-26T13:17:07.825Z,33.80
2018-07-26T13:19:48.970Z,33.70
2018-07-26T13:22:29.914Z,33.60
2018-07-26T13:25:10.865Z,33.60
2018-07-26T13:27:52.581Z,33.60
2018-07-26T13:30:34.176Z,33.60
2018-07-26T13:33:15.069Z,33.60
2018-07-26T13:35:55.977Z,33.60
2018-07-26T13:38:36.965Z,33.70
2018-07-26T13:41:18.174Z,33.80
2018-07-26T13:43:59.946Z,33.90
2018-07-26T13:46:41.565Z,34.00
2018-07-26T13:49:22.138Z,34.00
2018-07-26T13:52:03.036Z,34.10
2018-07-26T13:54:44.289Z,34.10
2018-07-26T13:57:25.713Z,34.20
2018-07-26T14:00:06.757Z,34.20
2018-07-26T14:02:47.616Z,34.10
2018-07-26T14:05:28.259Z,34.20
2018-07-26T14:08:09.158Z,34.10
2018-07-26T14:10:49.930Z,34.10
2018-07-26T14:13:30.558Z,34.10
2018-07-26T14:18:53.894Z,34.20
2018-07-26T14:21:35.982Z,34.20
2018-07-26T14:24:23.780Z,34.20
2018-07-26T14:27:04.680Z,34.30
2018-07-26T14:29:45.642Z,34.20
2018-07-26T14:32:26.856Z,34.10
2018-07-26T14:35:07.608Z,34.00
2018-07-26T14:37:48.753Z,33.80
2018-07-26T14:40:29.845Z,33.80
2018-07-26T14:43:10.916Z,33.80
2018-07-26T14:45:52.208Z,33.70
2018-07-26T14:48:33.277Z,33.70
2018-07-26T14:51:18.177Z,33.70
2018-07-26T14:53:59.691Z,33.60
2018-07-26T14:56:40.826Z,33.60
2018-07-26T14:59:21.830Z,33.50
2018-07-26T15:02:02.749Z,33.50
2018-07-26T15:04:43.606Z,33.40
2018-07-26T15:10:06.596Z,33.40
2018-07-26T15:12:47.643Z,33.40
2018-07-26T15:15:28.681Z,33.30
2018-07-26T15:18:09.471Z,33.30
2018-07-26T15:23:32.098Z,33.20
2018-07-26T15:26:12.907Z,33.20
2018-07-26T15:28:53.693Z,33.10
2018-07-26T15:31:35.024Z,33.00
2018-07-26T15:34:16.021Z,32.90
2018-07-26T15:36:56.885Z,32.90
2018-07-26T15:39:37.833Z,32.90
2018-07-26T15:42:19.407Z,32.90
2018-07-26T15:45:00.690Z,32.90
2018-07-26T15:47:41.548Z,32.90
2018-07-26T15:50:22.455Z,32.80
2018-07-26T15:53:03.568Z,32.80
2018-07-26T15:55:44.538Z,32.70
2018-07-26T15:58:25.406Z,32.60
2018-07-26T16:01:06.486Z,32.50
2018-07-26T16:03:47.574Z,32.40
2018-07-26T16:06:28.647Z,32.20
2018-07-26T16:09:09.698Z,31.90
2018-07-26T16:11:50.854Z,31.70
2018-07-26T16:14:31.982Z,31.60
2018-07-26T16:17:12.893Z,31.40
2018-07-26T16:19:53.699Z,31.30
2018-07-26T16:22:35.035Z,31.20
2018-07-26T16:25:16.072Z,31.10
2018-07-26T16:27:57.101Z,31.10
2018-07-26T16:30:38.345Z,30.90
2018-07-26T16:33:19.029Z,30.90
2018-07-26T16:36:00.359Z,30.80
2018-07-26T16:38:41.543Z,30.80
2018-07-26T16:41:22.738Z,30.70
2018-07-26T16:44:03.856Z,30.60
2018-07-26T16:46:44.972Z,30.50
2018-07-26T16:49:25.846Z,30.40
2018-07-26T16:52:07.027Z,30.30
2018-07-26T16:54:48.167Z,30.20
2018-07-26T16:57:29.213Z,30.10
2018-07-26T17:00:10.576Z,30.00
2018-07-26T17:02:51.181Z,29.90
2018-07-26T17:05:31.874Z,29.80
2018-07-26T17:08:12.817Z,29.70
2018-07-26T17:10:53.632Z,29.60
2018-07-26T17:13:34.309Z,29.50
2018-07-26T17:16:15.761Z,29.40
2018-07-26T17:18:57.053Z,29.30
2018-07-26T17:21:40.252Z,29.20
2018-07-26T17:24:21.672Z,29.20
2018-07-26T17:27:02.585Z,29.10
2018-07-26T17:29:44.293Z,29.10
2018-07-26T17:32:25.021Z,29.00
2018-07-26T17:35:06.237Z,29.00
2018-07-26T17:37:47.230Z,28.90
2018-07-26T17:40:28.439Z,28.90
2018-07-26T17:43:09.658Z,28.80
2018-07-26T17:45:50.255Z,28.70
2018-07-26T17:48:31.430Z,28.70
2018-07-26T17:51:12.477Z,28.70
2018-07-26T17:53:53.460Z,28.70
2018-07-26T17:56:34.617Z,28.70
2018-07-26T17:59:15.730Z,28.70
2018-07-26T18:01:56.534Z,28.60
2018-07-26T18:04:37.694Z,28.60
2018-07-26T18:10:00.162Z,28.60
2018-07-26T18:12:40.807Z,28.60
2018-07-26T18:15:21.573Z,28.50
2018-07-26T18:18:03.071Z,28.50
2018-07-26T18:20:44.027Z,28.40
2018-07-26T18:23:25.615Z,28.30
2018-07-26T18:26:06.430Z,28.20
2018-07-26T18:31:28.179Z,28.10
2018-07-26T18:34:09.301Z,28.00
2018-07-26T18:36:50.303Z,27.90
2018-07-26T18:39:31.456Z,27.80
2018-07-26T18:42:13.081Z,27.80
2018-07-26T18:44:53.747Z,27.70
2018-07-26T18:47:35.634Z,27.70
2018-07-26T18:50:17.030Z,27.70
2018-07-26T18:52:57.928Z,27.70
2018-07-26T18:55:39.031Z,27.60
2018-07-26T18:58:19.968Z,27.60
2018-07-26T19:03:42.267Z,27.60
2018-07-26T19:06:23.422Z,27.50
2018-07-26T19:09:04.786Z,27.50
2018-07-26T19:11:45.586Z,27.50
2018-07-26T19:14:26.454Z,27.50
2018-07-26T19:17:07.402Z,27.40
2018-07-26T19:19:48.497Z,27.40
2018-07-26T19:22:29.700Z,27.30
2018-07-26T19:25:11.894Z,27.30
2018-07-26T19:27:52.680Z,27.30
2018-07-26T19:30:33.871Z,27.20
2018-07-26T19:33:14.810Z,27.20
2018-07-26T19:35:55.969Z,27.10
2018-07-26T19:38:37.201Z,27.10
2018-07-26T19:41:18.434Z,27.00
2018-07-26T19:43:59.788Z,26.90
2018-07-26T19:46:41.538Z,26.80
2018-07-26T19:49:22.117Z,26.80
2018-07-26T19:52:03.119Z,26.80
2018-07-26T19:54:44.247Z,26.80
2018-07-26T19:57:25.267Z,26.70
2018-07-26T20:00:06.793Z,26.70
2018-07-26T20:02:47.769Z,26.70
2018-07-26T20:05:28.735Z,26.60
2018-07-26T20:08:09.909Z,26.50
2018-07-26T20:10:51.019Z,26.50
2018-07-26T20:13:32.272Z,26.50
2018-07-26T20:16:13.335Z,26.60
2018-07-26T20:18:54.367Z,26.60
2018-07-26T20:21:35.101Z,26.60
2018-07-26T20:24:16.189Z,26.60
2018-07-26T20:26:57.087Z,26.60
2018-07-26T20:29:37.965Z,26.50
2018-07-26T20:32:18.789Z,26.50
2018-07-26T20:34:59.796Z,26.60
2018-07-26T20:37:41.408Z,26.60
2018-07-26T20:40:22.643Z,26.50
2018-07-26T20:43:03.571Z,26.50
2018-07-26T20:45:44.271Z,26.50
2018-07-26T20:48:25.210Z,26.50
2018-07-26T20:51:06.084Z,26.60
2018-07-26T20:53:46.871Z,26.60
2018-07-26T20:56:28.223Z,26.50
2018-07-26T20:59:08.881Z,26.50
2018-07-26T21:01:50.244Z,26.50
2018-07-26T21:04:31.049Z,26.50
2018-07-26T21:07:11.890Z,26.50
2018-07-26T21:09:52.771Z,26.50
2018-07-26T21:12:33.784Z,26.40
2018-07-26T21:15:15.101Z,26.40
2018-07-26T21:17:55.751Z,26.40
2018-07-26T21:23:19.226Z,26.40
2018-07-26T21:28:41.113Z,26.30
2018-07-26T21:34:03.981Z,26.30
2018-07-26T21:36:44.892Z,26.30
2018-07-26T21:39:25.917Z,26.30
2018-07-26T21:44:48.588Z,26.30
2018-07-26T21:47:29.412Z,26.30
2018-07-26T21:50:10.176Z,26.30
2018-07-26T21:52:51.109Z,26.20
2018-07-26T21:55:31.937Z,26.20
2018-07-26T21:58:12.501Z,26.20
2018-07-26T22:00:57.840Z,26.20
2018-07-26T22:03:38.573Z,26.20
2018-07-26T22:06:19.926Z,26.20
2018-07-26T22:09:00.568Z,26.20
2018-07-26T22:11:41.373Z,26.20
2018-07-26T22:14:21.996Z,26.10
2018-07-26T22:17:03.459Z,26.10
2018-07-26T22:19:45.045Z,26.10
2018-07-26T22:22:26.695Z,26.10
2018-07-26T22:25:07.349Z,26.10
2018-07-26T22:27:48.317Z,26.00
2018-07-26T22:30:29.111Z,26.10
2018-07-26T22:33:10.301Z,26.00
2018-07-26T22:35:51.740Z,26.00
2018-07-26T22:38:32.997Z,26.00
2018-07-26T22:41:13.608Z,26.00
2018-07-26T22:43:54.655Z,26.00
2018-07-26T22:46:35.592Z,26.00
2018-07-26T22:51:58.108Z,26.00
2018-07-26T22:54:38.997Z,26.00
2018-07-26T22:57:20.005Z,26.00
2018-07-26T23:00:00.937Z,26.00
2018-07-26T23:02:41.821Z,26.10
2018-07-26T23:08:03.417Z,26.00
2018-07-26T23:13:25.393Z,25.90
2018-07-26T23:16:06.133Z,25.90
2018-07-26T23:18:47.447Z,25.80
2018-07-26T23:21:28.573Z,25.80
2018-07-26T23:24:09.966Z,25.80
2018-07-26T23:26:50.732Z,25.80
2018-07-26T23:29:31.600Z,25.80
2018-07-26T23:32:12.909Z,25.70
2018-07-26T23:34:53.644Z,25.70
2018-07-26T23:37:34.497Z,25.70
2018-07-26T23:42:56.384Z,25.80
2018-07-26T23:45:37.537Z,25.80
2018-07-26T23:50:59.589Z,25.80
2018-07-26T23:53:40.469Z,25.80
2018-07-26T23:56:21.740Z,25.90
2018-07-26T23:59:03.305Z,26.00
